TIPO2: N. Fork Red River nr Tipton, OK

Data processed at Sat Dec 09 2017 23:47


All information presented herein is the property of the government of the United States of America and may be revised or deleted at any time without prior notice.
Dissemination of this information without the expressed written consent of the Public Affairs Office, Tulsa District U.S. Army Corps of Engineers is strictly prohibited.
These data are gathered electronically and, as presented, have not undergone any form of quality control. These data are not guaranteed to be valid or correct.
Go to home page.
Go to station list.

Upstream stations:

Downstream station:
Previous Day
Next Day
Current Day
    
SHEF ID:       TIPO2     North Fork Red River near Tipton
STATION TYPE:  

                STAGE  RIV-FLOW   VOLTAGE  BAT-LOAD
                   ft       cfs      volt      volt
              Ccp-Rev   Ccp-Rev   Ccp-Rev   Ccp-Rev
(US/Central)
12/07 00:00      5.87       173     12.49     12.33
12/07 01:00      5.87       173     12.41     12.33
12/07 02:00      5.86       171     12.41     12.25
12/07 03:00      5.76       152     12.33     12.17
12/07 04:00      5.77       153     12.33     12.17
12/07 05:00      5.76       152     12.33     12.17
12/07 06:00      5.76       152     12.33     12.17
12/07 07:00      5.77       153     12.33     12.17
12/07 08:00      5.74       148     12.33     12.17
12/07 09:00      5.71       142     12.41     12.17
12/07 10:00      5.74       148     12.89     12.73
12/07 11:00      5.75       150     13.21     12.97
12/07 12:00      5.69       139     13.21     12.97
12/07 13:00      5.73       146     13.29     13.05
12/07 14:00      5.79       157     13.29     13.05
12/07 15:00      5.76       152     13.21     13.05
12/07 16:00      5.75       150     13.05     12.89
12/07 17:00      5.82       163     12.89     12.73
12/07 18:00      5.85       169     12.81     12.65
12/07 19:00      5.84       167     12.65     12.57
12/07 20:00      5.83       165     12.65     12.49
12/07 21:00      5.84       167     12.57     12.41
12/07 22:00      5.83       165     12.57     12.41
12/07 23:00      5.82       163     12.49     12.41